createdAt,value
2018-06-02T00:04:20.285Z,85.18
2018-06-02T00:09:22.841Z,85.43
2018-06-02T00:14:25.359Z,85.67
2018-06-02T00:19:27.900Z,85.79
2018-06-02T00:24:30.373Z,85.89
2018-06-02T00:29:32.886Z,86.13
2018-06-02T00:34:35.377Z,86.16
2018-06-02T00:39:37.884Z,86.29
2018-06-02T00:44:40.365Z,86.61
2018-06-02T00:49:42.899Z,86.84
2018-06-02T00:54:57.415Z,87.21
2018-06-02T01:00:00.000Z,87.16
2018-06-02T01:05:02.493Z,87.78
2018-06-02T01:10:05.033Z,87.52
2018-06-02T01:15:07.528Z,87.51
2018-06-02T01:20:10.034Z,87.66
2018-06-02T01:25:12.932Z,87.72
2018-06-02T01:30:15.711Z,87.61
2018-06-02T01:35:20.054Z,87.48
2018-06-02T01:40:22.580Z,87.50
2018-06-02T01:45:25.063Z,87.57
2018-06-02T01:50:27.576Z,87.78
2018-06-02T01:55:30.088Z,87.74
2018-06-02T02:00:32.592Z,87.73
2018-06-02T02:05:35.085Z,87.51
2018-06-02T02:10:37.592Z,87.68
2018-06-02T02:15:40.114Z,87.68
2018-06-02T02:20:42.645Z,87.76
2018-06-02T02:25:45.195Z,87.82
2018-06-02T02:30:47.725Z,87.79
2018-06-02T02:35:50.239Z,87.69
2018-06-02T02:40:52.750Z,87.70
2018-06-02T02:45:55.245Z,87.75
2018-06-02T02:50:57.773Z,87.66
2018-06-02T02:56:00.274Z,87.68
2018-06-02T03:01:02.724Z,87.72
2018-06-02T03:06:05.254Z,87.78
2018-06-02T03:11:07.759Z,87.70
2018-06-02T03:16:10.270Z,87.59
2018-06-02T03:21:12.766Z,87.56
2018-06-02T03:26:15.279Z,87.50
2018-06-02T03:31:18.001Z,87.37
2018-06-02T03:36:20.561Z,87.51
2018-06-02T03:41:23.108Z,87.57
2018-06-02T03:46:25.633Z,87.43
2018-06-02T03:51:28.222Z,87.15
2018-06-02T03:56:30.710Z,86.76
2018-06-02T04:01:33.201Z,86.25
2018-06-02T04:06:35.704Z,85.37
2018-06-02T04:11:38.249Z,85.06
2018-06-02T04:16:40.755Z,84.58
2018-06-02T04:21:43.288Z,83.48
2018-06-02T04:26:46.649Z,82.16
2018-06-02T04:31:49.166Z,81.75
2018-06-02T04:36:51.708Z,81.61
2018-06-02T04:41:54.282Z,80.00
2018-06-02T04:46:58.030Z,78.81
2018-06-02T04:52:00.551Z,79.08
2018-06-02T04:57:03.174Z,78.97
2018-06-02T05:02:05.670Z,78.35
2018-06-02T05:07:08.181Z,77.76
2018-06-02T05:12:10.725Z,77.19
2018-06-02T05:17:13.251Z,76.66
2018-06-02T05:22:15.784Z,76.36
2018-06-02T05:27:18.451Z,74.92
2018-06-02T05:32:21.349Z,74.41
2018-06-02T05:37:23.942Z,74.11
2018-06-02T05:42:26.550Z,71.57
2018-06-02T05:47:29.050Z,70.76
2018-06-02T05:52:31.576Z,69.29
2018-06-02T05:57:34.073Z,69.03
2018-06-02T06:02:36.604Z,66.83
2018-06-02T06:07:39.137Z,66.26
2018-06-02T06:12:42.765Z,65.83
2018-06-02T06:17:45.443Z,66.68
2018-06-02T06:22:48.049Z,67.76
2018-06-02T06:27:50.556Z,67.96
2018-06-02T06:32:53.097Z,69.22
2018-06-02T06:37:55.605Z,68.19
2018-06-02T06:42:58.153Z,68.24
2018-06-02T06:48:00.642Z,65.76
2018-06-02T06:53:03.146Z,66.04
2018-06-02T06:58:05.625Z,64.15
2018-06-02T07:03:08.111Z,63.05
2018-06-02T07:08:10.666Z,62.76
2018-06-02T07:13:13.757Z,61.85
2018-06-02T07:18:16.352Z,62.33
2018-06-02T07:23:18.873Z,62.31
2018-06-02T07:28:21.451Z,60.48
2018-06-02T07:33:23.915Z,59.45
2018-06-02T07:38:27.418Z,57.37
2018-06-02T07:43:29.958Z,58.02
2018-06-02T07:48:32.473Z,51.86
2018-06-02T07:53:35.103Z,49.44
2018-06-02T07:58:37.635Z,47.32
2018-06-02T08:03:40.128Z,48.38
2018-06-02T08:08:42.910Z,51.27
2018-06-02T08:13:45.515Z,50.97
2018-06-02T08:18:48.129Z,44.53
2018-06-02T08:23:50.694Z,47.76
2018-06-02T08:28:53.232Z,43.90
2018-06-02T08:33:55.780Z,51.30
2018-06-02T08:38:58.288Z,51.80
2018-06-02T08:44:00.908Z,49.55
2018-06-02T08:49:03.411Z,53.92
2018-06-02T08:54:05.896Z,54.17
2018-06-02T08:59:08.393Z,44.98
2018-06-02T09:04:10.889Z,47.68
2018-06-02T09:09:13.499Z,45.56
2018-06-02T09:14:16.085Z,44.67
2018-06-02T09:19:18.673Z,42.81
2018-06-02T09:24:21.428Z,46.03
2018-06-02T09:29:23.970Z,48.47
2018-06-02T09:34:26.514Z,43.07
2018-06-02T09:39:28.974Z,39.48
2018-06-02T09:44:31.474Z,40.91
2018-06-02T09:49:34.037Z,40.23
2018-06-02T09:54:36.501Z,42.87
2018-06-02T09:59:39.009Z,45.85
2018-06-02T10:04:41.953Z,43.61
2018-06-02T10:09:45.261Z,44.76
2018-06-02T10:14:47.785Z,39.65
2018-06-02T10:19:50.313Z,35.75
2018-06-02T10:24:52.848Z,37.12
2018-06-02T10:29:55.368Z,36.57
2018-06-02T10:34:57.899Z,39.90
2018-06-02T10:40:00.371Z,43.87
2018-06-02T10:45:02.878Z,42.83
2018-06-02T10:50:05.540Z,41.49
2018-06-02T10:55:08.047Z,41.29
2018-06-02T11:00:10.635Z,44.64
2018-06-02T11:05:13.100Z,39.40
2018-06-02T11:10:15.621Z,43.34
2018-06-02T11:15:18.181Z,45.56
2018-06-02T11:20:20.643Z,46.41
2018-06-02T11:25:23.150Z,45.91
2018-06-02T11:30:25.645Z,42.59
2018-06-02T11:35:28.138Z,43.93
2018-06-02T11:40:30.667Z,43.92
2018-06-02T11:45:33.186Z,41.89
2018-06-02T11:50:35.709Z,38.77
2018-06-02T11:55:38.190Z,39.61
2018-06-02T12:00:40.699Z,46.51
2018-06-02T12:05:43.228Z,47.62
2018-06-02T12:10:45.941Z,46.72
2018-06-02T12:15:48.498Z,46.40
2018-06-02T12:20:51.022Z,48.67
2018-06-02T12:25:53.583Z,50.29
2018-06-02T12:30:56.071Z,50.38
2018-06-02T12:35:58.627Z,50.66
2018-06-02T12:41:01.122Z,50.28
2018-06-02T12:46:03.619Z,50.40
2018-06-02T12:51:06.154Z,51.90
2018-06-02T12:56:08.638Z,50.64
2018-06-02T13:01:11.173Z,50.67
2018-06-02T13:06:13.791Z,50.75
2018-06-02T13:11:16.336Z,51.29
2018-06-02T13:16:18.835Z,51.37
2018-06-02T13:21:21.335Z,52.66
2018-06-02T13:26:23.861Z,52.83
2018-06-02T13:31:33.951Z,51.53
2018-06-02T13:36:36.441Z,52.00
2018-06-02T13:41:38.938Z,53.48
2018-06-02T13:46:42.169Z,54.49
2018-06-02T13:51:45.557Z,54.33
2018-06-02T13:56:48.049Z,53.93
2018-06-02T14:01:50.618Z,54.52
2018-06-02T14:06:53.181Z,54.58
2018-06-02T14:11:55.723Z,53.73
2018-06-02T14:16:58.223Z,52.29
2018-06-02T14:22:00.861Z,51.28
2018-06-02T14:27:03.992Z,50.07
2018-06-02T14:32:06.531Z,50.52
2018-06-02T14:37:09.168Z,48.69
2018-06-02T14:42:11.565Z,46.61
2018-06-02T14:47:14.194Z,45.61
2018-06-02T14:52:16.805Z,45.66
2018-06-02T14:57:19.363Z,44.95
2018-06-02T15:02:21.979Z,45.90
2018-06-02T15:07:24.546Z,46.11
2018-06-02T15:12:27.094Z,45.46
2018-06-02T15:17:29.594Z,44.73
2018-06-02T15:22:32.095Z,45.63
2018-06-02T15:27:34.602Z,47.00
2018-06-02T15:32:37.098Z,48.44
2018-06-02T15:37:39.693Z,49.20
2018-06-02T15:42:42.183Z,48.14
2018-06-02T15:47:44.740Z,46.61
2018-06-02T15:52:47.286Z,46.32
2018-06-02T15:57:49.886Z,48.20
2018-06-02T16:02:52.462Z,49.79
2018-06-02T16:07:55.348Z,50.90
2018-06-02T16:12:57.954Z,52.13
2018-06-02T16:18:00.445Z,50.25
2018-06-02T16:23:02.936Z,51.05
2018-06-02T16:28:05.432Z,52.79
2018-06-02T16:33:07.992Z,53.58
2018-06-02T16:38:10.512Z,53.14
2018-06-02T16:43:13.087Z,53.40
2018-06-02T16:48:15.603Z,52.81
2018-06-02T16:53:18.148Z,55.25
2018-06-02T16:58:20.668Z,54.90
2018-06-02T17:03:23.350Z,55.30
2018-06-02T17:08:25.848Z,56.70
2018-06-02T17:13:28.420Z,56.78
2018-06-02T17:18:30.907Z,56.76
2018-06-02T17:23:33.410Z,56.52
2018-06-02T17:28:35.920Z,56.52
2018-06-02T17:33:38.524Z,54.81
2018-06-02T17:38:40.988Z,54.91
2018-06-02T17:43:43.524Z,55.32
2018-06-02T17:48:46.186Z,55.94
2018-06-02T17:53:48.733Z,55.98
2018-06-02T17:58:51.260Z,56.44
2018-06-02T18:03:53.924Z,56.37
2018-06-02T18:08:56.412Z,57.19
2018-06-02T18:13:59.124Z,57.53
2018-06-02T18:19:01.598Z,58.26
2018-06-02T18:24:04.144Z,57.93
2018-06-02T18:29:06.664Z,58.98
2018-06-02T18:34:09.173Z,58.79
2018-06-02T18:39:11.728Z,59.28
2018-06-02T18:44:14.682Z,59.80
2018-06-02T18:49:17.228Z,59.73
2018-06-02T18:54:19.750Z,60.18
2018-06-02T18:59:22.406Z,60.44
2018-06-02T19:04:25.436Z,60.70
2018-06-02T19:09:28.044Z,61.00
2018-06-02T19:14:30.826Z,61.11
2018-06-02T19:19:34.361Z,61.06
2018-06-02T19:24:36.907Z,61.31
2018-06-02T19:29:39.688Z,61.73
2018-06-02T19:34:43.075Z,61.21
2018-06-02T19:39:45.879Z,61.13
2018-06-02T19:44:49.444Z,61.34
2018-06-02T19:49:52.070Z,62.07
2018-06-02T19:54:55.391Z,62.13
2018-06-02T19:59:58.611Z,61.67
2018-06-02T20:05:02.122Z,61.38
2018-06-02T20:10:04.879Z,61.63
2018-06-02T20:15:08.270Z,61.80
2018-06-02T20:20:10.761Z,62.24
2018-06-02T20:25:13.283Z,61.99
2018-06-02T20:30:16.041Z,62.02
2018-06-02T20:35:18.782Z,62.35
2018-06-02T20:40:21.698Z,62.55
2018-06-02T20:45:26.825Z,63.29
2018-06-02T20:50:30.672Z,63.71
2018-06-02T20:55:33.144Z,64.21
2018-06-02T21:00:37.374Z,64.50
2018-06-02T21:05:42.768Z,64.24
2018-06-02T21:10:45.663Z,64.40
2018-06-02T21:15:48.343Z,64.36
2018-06-02T21:20:52.781Z,64.16
2018-06-02T21:25:55.893Z,64.55
2018-06-02T21:30:58.544Z,64.62
2018-06-02T21:36:01.036Z,64.76
2018-06-02T21:41:04.942Z,65.02
2018-06-02T21:46:09.978Z,65.40
2018-06-02T21:51:14.812Z,65.63
2018-06-02T21:56:18.139Z,65.69
2018-06-02T22:01:20.822Z,65.77
2018-06-02T22:06:23.688Z,65.97
2018-06-02T22:11:26.219Z,66.21
2018-06-02T22:16:28.935Z,66.52
2018-06-02T22:21:33.257Z,66.59
2018-06-02T22:26:35.766Z,66.94
2018-06-02T22:31:38.251Z,66.90
2018-06-02T22:36:40.765Z,66.90
2018-06-02T22:41:43.284Z,67.63
2018-06-02T22:46:45.808Z,68.04
2018-06-02T22:51:57.132Z,68.46
2018-06-02T22:56:59.604Z,68.30
2018-06-02T23:02:02.144Z,68.84
2018-06-02T23:07:04.605Z,68.71
2018-06-02T23:12:07.088Z,68.53
2018-06-02T23:17:09.566Z,68.43
2018-06-02T23:28:15.583Z,69.95
2018-06-02T23:33:19.115Z,69.49
2018-06-02T23:38:22.307Z,69.64
2018-06-02T23:43:25.472Z,70.04
2018-06-02T23:48:28.717Z,69.62
2018-06-02T23:53:31.911Z,69.93
2018-06-02T23:58:35.015Z,69.38
